sensor_id;sensor_type;location;lat;lon;timestamp;P1;durP1;ratioP1;P2;durP2;ratioP2
38859;SDS011;24609;48.316;16.174;2022-08-03T00:01:37;3.45;;;2.92;;
38859;SDS011;24609;48.316;16.174;2022-08-03T00:04:04;3.20;;;2.90;;
38859;SDS011;24609;48.316;16.174;2022-08-03T00:06:30;3.55;;;3.25;;
38859;SDS011;24609;48.316;16.174;2022-08-03T00:08:56;3.40;;;3.10;;
38859;SDS011;24609;48.316;16.174;2022-08-03T00:11:22;4.47;;;3.80;;
38859;SDS011;24609;48.316;16.174;2022-08-03T00:13:47;3.90;;;3.60;;
38859;SDS011;24609;48.316;16.174;2022-08-03T00:16:14;4.10;;;3.53;;
38859;SDS011;24609;48.316;16.174;2022-08-03T00:18:40;5.28;;;3.72;;
38859;SDS011;24609;48.316;16.174;2022-08-03T00:21:05;4.00;;;3.60;;
38859;SDS011;24609;48.316;16.174;2022-08-03T00:23:31;3.95;;;3.65;;
38859;SDS011;24609;48.316;16.174;2022-08-03T00:25:58;4.85;;;3.17;;
38859;SDS011;24609;48.316;16.174;2022-08-03T00:28:23;3.42;;;3.13;;
38859;SDS011;24609;48.316;16.174;2022-08-03T00:30:49;4.38;;;3.45;;
38859;SDS011;24609;48.316;16.174;2022-08-03T00:33:15;3.67;;;3.38;;
38859;SDS011;24609;48.316;16.174;2022-08-03T00:35:41;3.75;;;3.35;;
38859;SDS011;24609;48.316;16.174;2022-08-03T00:38:07;2.85;;;2.65;;
38859;SDS011;24609;48.316;16.174;2022-08-03T00:40:33;3.53;;;3.22;;
38859;SDS011;24609;48.316;16.174;2022-08-03T00:43:00;3.00;;;2.80;;
38859;SDS011;24609;48.316;16.174;2022-08-03T00:45:28;3.33;;;3.10;;
38859;SDS011;24609;48.316;16.174;2022-08-03T00:47:56;3.75;;;2.90;;
38859;SDS011;24609;48.316;16.174;2022-08-03T00:50:22;3.20;;;2.90;;
38859;SDS011;24609;48.316;16.174;2022-08-03T00:52:50;3.17;;;2.88;;
38859;SDS011;24609;48.316;16.174;2022-08-03T00:55:18;3.30;;;3.00;;
38859;SDS011;24609;48.316;16.174;2022-08-03T00:57:44;3.30;;;3.00;;
38859;SDS011;24609;48.316;16.174;2022-08-03T01:00:11;3.22;;;2.92;;
38859;SDS011;24609;48.316;16.174;2022-08-03T01:02:39;3.47;;;3.08;;
38859;SDS011;24609;48.316;16.174;2022-08-03T01:05:06;4.50;;;4.03;;
38859;SDS011;24609;48.316;16.174;2022-08-03T01:07:40;4.45;;;3.55;;
38859;SDS011;24609;48.316;16.174;2022-08-03T01:12:56;3.72;;;3.30;;
38859;SDS011;24609;48.316;16.174;2022-08-03T01:15:37;3.30;;;3.00;;
38859;SDS011;24609;48.316;16.174;2022-08-03T01:18:11;3.17;;;2.88;;
38859;SDS011;24609;48.316;16.174;2022-08-03T01:20:43;3.78;;;3.13;;
38859;SDS011;24609;48.316;16.174;2022-08-03T01:23:55;3.28;;;2.97;;
38859;SDS011;24609;48.316;16.174;2022-08-03T01:32:01;3.15;;;2.85;;
38859;SDS011;24609;48.316;16.174;2022-08-03T01:34:33;3.67;;;3.38;;
38859;SDS011;24609;48.316;16.174;2022-08-03T01:37:05;5.25;;;3.67;;
38859;SDS011;24609;48.316;16.174;2022-08-03T01:39:33;5.50;;;4.38;;
38859;SDS011;24609;48.316;16.174;2022-08-03T01:42:03;4.83;;;4.43;;
38859;SDS011;24609;48.316;16.174;2022-08-03T01:44:32;5.32;;;4.82;;
38859;SDS011;24609;48.316;16.174;2022-08-03T01:47:04;3.75;;;3.45;;
38859;SDS011;24609;48.316;16.174;2022-08-03T01:49:32;3.80;;;3.45;;
38859;SDS011;24609;48.316;16.174;2022-08-03T01:52:02;4.35;;;3.90;;
38859;SDS011;24609;48.316;16.174;2022-08-03T01:54:31;4.28;;;3.88;;
38859;SDS011;24609;48.316;16.174;2022-08-03T01:57:00;4.93;;;4.10;;
38859;SDS011;24609;48.316;16.174;2022-08-03T01:59:27;4.50;;;3.70;;
38859;SDS011;24609;48.316;16.174;2022-08-03T02:01:55;5.47;;;4.47;;
38859;SDS011;24609;48.316;16.174;2022-08-03T02:04:23;4.22;;;3.83;;
38859;SDS011;24609;48.316;16.174;2022-08-03T02:06:51;6.22;;;4.72;;
38859;SDS011;24609;48.316;16.174;2022-08-03T02:09:19;4.10;;;3.70;;
38859;SDS011;24609;48.316;16.174;2022-08-03T02:11:46;4.43;;;3.67;;
38859;SDS011;24609;48.316;16.174;2022-08-03T02:14:13;4.70;;;3.42;;
38859;SDS011;24609;48.316;16.174;2022-08-03T02:16:40;3.88;;;3.40;;
38859;SDS011;24609;48.316;16.174;2022-08-03T02:19:08;3.90;;;3.45;;
38859;SDS011;24609;48.316;16.174;2022-08-03T02:21:36;3.83;;;3.53;;
38859;SDS011;24609;48.316;16.174;2022-08-03T02:24:02;5.35;;;3.78;;
38859;SDS011;24609;48.316;16.174;2022-08-03T02:26:29;3.90;;;3.50;;
38859;SDS011;24609;48.316;16.174;2022-08-03T02:29:00;4.00;;;3.60;;
38859;SDS011;24609;48.316;16.174;2022-08-03T02:31:32;4.22;;;3.67;;
38859;SDS011;24609;48.316;16.174;2022-08-03T02:36:28;4.00;;;3.67;;
38859;SDS011;24609;48.316;16.174;2022-08-03T02:38:57;3.70;;;3.40;;
38859;SDS011;24609;48.316;16.174;2022-08-03T02:41:31;3.80;;;3.50;;
38859;SDS011;24609;48.316;16.174;2022-08-03T02:44:02;3.72;;;3.42;;
38859;SDS011;24609;48.316;16.174;2022-08-03T02:46:32;3.70;;;3.40;;
38859;SDS011;24609;48.316;16.174;2022-08-03T02:49:00;4.28;;;3.85;;
38859;SDS011;24609;48.316;16.174;2022-08-03T02:51:29;5.50;;;3.58;;
38859;SDS011;24609;48.316;16.174;2022-08-03T02:53:56;3.78;;;3.42;;
38859;SDS011;24609;48.316;16.174;2022-08-03T02:58:52;3.70;;;3.33;;
38859;SDS011;24609;48.316;16.174;2022-08-03T03:01:23;4.45;;;4.05;;
38859;SDS011;24609;48.316;16.174;2022-08-03T03:03:51;4.93;;;4.40;;
38859;SDS011;24609;48.316;16.174;2022-08-03T03:06:19;5.68;;;4.10;;
38859;SDS011;24609;48.316;16.174;2022-08-03T03:08:46;4.90;;;4.03;;
38859;SDS011;24609;48.316;16.174;2022-08-03T03:11:13;4.22;;;3.83;;
38859;SDS011;24609;48.316;16.174;2022-08-03T03:13:42;4.22;;;3.83;;
38859;SDS011;24609;48.316;16.174;2022-08-03T03:16:09;6.13;;;4.43;;
38859;SDS011;24609;48.316;16.174;2022-08-03T03:18:37;4.80;;;4.40;;
38859;SDS011;24609;48.316;16.174;2022-08-03T03:21:04;4.90;;;4.40;;
38859;SDS011;24609;48.316;16.174;2022-08-03T03:23:34;5.57;;;3.97;;
38859;SDS011;24609;48.316;16.174;2022-08-03T03:26:02;4.35;;;3.97;;
38859;SDS011;24609;48.316;16.174;2022-08-03T03:28:29;4.55;;;4.15;;
38859;SDS011;24609;48.316;16.174;2022-08-03T03:30:56;4.13;;;3.70;;
38859;SDS011;24609;48.316;16.174;2022-08-03T03:33:22;4.70;;;4.30;;
38859;SDS011;24609;48.316;16.174;2022-08-03T03:35:48;5.30;;;4.80;;
38859;SDS011;24609;48.316;16.174;2022-08-03T03:38:15;4.40;;;3.53;;
38859;SDS011;24609;48.316;16.174;2022-08-03T03:40:42;4.07;;;3.78;;
38859;SDS011;24609;48.316;16.174;2022-08-03T03:43:08;3.97;;;3.58;;
38859;SDS011;24609;48.316;16.174;2022-08-03T03:45:36;5.63;;;3.80;;
38859;SDS011;24609;48.316;16.174;2022-08-03T03:48:04;4.38;;;3.75;;
38859;SDS011;24609;48.316;16.174;2022-08-03T03:50:31;4.10;;;3.70;;
38859;SDS011;24609;48.316;16.174;2022-08-03T03:52:57;4.75;;;4.35;;
38859;SDS011;24609;48.316;16.174;2022-08-03T03:55:23;4.93;;;4.45;;
38859;SDS011;24609;48.316;16.174;2022-08-03T03:57:49;4.85;;;4.30;;
38859;SDS011;24609;48.316;16.174;2022-08-03T04:00:15;3.90;;;3.60;;
38859;SDS011;24609;48.316;16.174;2022-08-03T04:02:42;6.03;;;4.35;;
38859;SDS011;24609;48.316;16.174;2022-08-03T04:05:08;4.75;;;4.35;;
38859;SDS011;24609;48.316;16.174;2022-08-03T04:10:40;7.20;;;4.95;;
38859;SDS011;24609;48.316;16.174;2022-08-03T04:13:22;5.20;;;4.80;;
38859;SDS011;24609;48.316;16.174;2022-08-03T04:15:51;5.20;;;4.70;;
38859;SDS011;24609;48.316;16.174;2022-08-03T04:18:19;4.35;;;3.80;;
38859;SDS011;24609;48.316;16.174;2022-08-03T04:20:46;4.85;;;4.45;;
38859;SDS011;24609;48.316;16.174;2022-08-03T04:23:15;5.75;;;5.25;;
38859;SDS011;24609;48.316;16.174;2022-08-03T04:25:45;5.88;;;5.28;;
38859;SDS011;24609;48.316;16.174;2022-08-03T04:28:14;5.38;;;4.97;;
38859;SDS011;24609;48.316;16.174;2022-08-03T04:30:40;6.30;;;5.78;;
38859;SDS011;24609;48.316;16.174;2022-08-03T04:33:11;6.80;;;5.47;;
38859;SDS011;24609;48.316;16.174;2022-08-03T04:35:38;5.80;;;5.20;;
38859;SDS011;24609;48.316;16.174;2022-08-03T04:38:07;5.65;;;5.15;;
38859;SDS011;24609;48.316;16.174;2022-08-03T04:40:35;4.28;;;3.97;;
38859;SDS011;24609;48.316;16.174;2022-08-03T04:43:03;5.22;;;4.72;;
38859;SDS011;24609;48.316;16.174;2022-08-03T04:45:31;4.82;;;4.32;;
38859;SDS011;24609;48.316;16.174;2022-08-03T04:47:57;4.35;;;3.78;;
38859;SDS011;24609;48.316;16.174;2022-08-03T04:50:24;3.80;;;3.50;;
38859;SDS011;24609;48.316;16.174;2022-08-03T04:52:52;5.35;;;4.65;;
38859;SDS011;24609;48.316;16.174;2022-08-03T04:55:31;6.18;;;5.25;;
38859;SDS011;24609;48.316;16.174;2022-08-03T04:57:58;5.97;;;5.47;;
38859;SDS011;24609;48.316;16.174;2022-08-03T05:00:25;5.65;;;5.15;;
38859;SDS011;24609;48.316;16.174;2022-08-03T05:02:51;4.90;;;4.50;;
38859;SDS011;24609;48.316;16.174;2022-08-03T05:05:18;5.30;;;4.80;;
38859;SDS011;24609;48.316;16.174;2022-08-03T05:07:44;6.57;;;4.80;;
38859;SDS011;24609;48.316;16.174;2022-08-03T05:10:10;6.22;;;4.95;;
38859;SDS011;24609;48.316;16.174;2022-08-03T05:12:37;11.90;;;6.03;;
38859;SDS011;24609;48.316;16.174;2022-08-03T05:15:03;6.15;;;5.57;;
38859;SDS011;24609;48.316;16.174;2022-08-03T05:17:30;8.63;;;5.32;;
38859;SDS011;24609;48.316;16.174;2022-08-03T05:19:58;6.13;;;5.53;;
38859;SDS011;24609;48.316;16.174;2022-08-03T05:22:24;6.35;;;5.22;;
38859;SDS011;24609;48.316;16.174;2022-08-03T05:24:50;7.50;;;5.95;;
38859;SDS011;24609;48.316;16.174;2022-08-03T05:27:15;7.25;;;6.55;;
38859;SDS011;24609;48.316;16.174;2022-08-03T05:29:43;6.70;;;6.10;;
38859;SDS011;24609;48.316;16.174;2022-08-03T05:32:13;7.88;;;6.60;;
38859;SDS011;24609;48.316;16.174;2022-08-03T05:34:39;7.03;;;6.32;;
38859;SDS011;24609;48.316;16.174;2022-08-03T05:37:04;6.63;;;5.90;;
38859;SDS011;24609;48.316;16.174;2022-08-03T05:39:31;7.40;;;6.63;;
38859;SDS011;24609;48.316;16.174;2022-08-03T05:41:57;8.85;;;6.68;;
38859;SDS011;24609;48.316;16.174;2022-08-03T05:44:23;6.85;;;6.22;;
38859;SDS011;24609;48.316;16.174;2022-08-03T05:46:49;7.15;;;6.38;;
38859;SDS011;24609;48.316;16.174;2022-08-03T05:49:16;7.13;;;6.43;;
38859;SDS011;24609;48.316;16.174;2022-08-03T05:51:42;7.60;;;5.03;;
38859;SDS011;24609;48.316;16.174;2022-08-03T05:54:07;6.50;;;5.90;;
38859;SDS011;24609;48.316;16.174;2022-08-03T05:56:33;7.15;;;6.53;;
38859;SDS011;24609;48.316;16.174;2022-08-03T05:58:59;7.50;;;6.80;;
38859;SDS011;24609;48.316;16.174;2022-08-03T06:01:25;6.22;;;5.63;;
38859;SDS011;24609;48.316;16.174;2022-08-03T06:03:50;6.90;;;6.25;;
38859;SDS011;24609;48.316;16.174;2022-08-03T06:06:16;6.50;;;5.57;;
38859;SDS011;24609;48.316;16.174;2022-08-03T06:08:42;5.07;;;4.60;;
38859;SDS011;24609;48.316;16.174;2022-08-03T06:11:10;4.80;;;4.40;;
38859;SDS011;24609;48.316;16.174;2022-08-03T06:13:36;5.28;;;4.60;;
38859;SDS011;24609;48.316;16.174;2022-08-03T06:16:02;6.73;;;6.13;;
38859;SDS011;24609;48.316;16.174;2022-08-03T06:18:28;6.32;;;5.72;;
38859;SDS011;24609;48.316;16.174;2022-08-03T06:20:54;7.05;;;6.45;;
38859;SDS011;24609;48.316;16.174;2022-08-03T06:23:20;4.13;;;3.75;;
38859;SDS011;24609;48.316;16.174;2022-08-03T06:25:46;6.13;;;5.63;;
38859;SDS011;24609;48.316;16.174;2022-08-03T06:28:12;6.70;;;5.97;;
38859;SDS011;24609;48.316;16.174;2022-08-03T06:30:38;7.30;;;5.82;;
38859;SDS011;24609;48.316;16.174;2022-08-03T06:33:04;5.57;;;5.18;;
38859;SDS011;24609;48.316;16.174;2022-08-03T06:35:30;4.72;;;4.43;;
38859;SDS011;24609;48.316;16.174;2022-08-03T06:37:56;4.90;;;4.47;;
38859;SDS011;24609;48.316;16.174;2022-08-03T06:40:22;5.32;;;4.93;;
38859;SDS011;24609;48.316;16.174;2022-08-03T06:42:56;5.35;;;4.38;;
38859;SDS011;24609;48.316;16.174;2022-08-03T06:45:23;5.20;;;4.70;;
38859;SDS011;24609;48.316;16.174;2022-08-03T06:47:58;5.28;;;4.88;;
38859;SDS011;24609;48.316;16.174;2022-08-03T06:50:26;6.10;;;5.50;;
38859;SDS011;24609;48.316;16.174;2022-08-03T06:52:52;7.63;;;6.90;;
38859;SDS011;24609;48.316;16.174;2022-08-03T06:55:17;8.20;;;5.82;;
38859;SDS011;24609;48.316;16.174;2022-08-03T06:57:43;5.15;;;4.75;;
38859;SDS011;24609;48.316;16.174;2022-08-03T07:00:09;6.20;;;5.60;;
38859;SDS011;24609;48.316;16.174;2022-08-03T07:02:36;5.18;;;4.78;;
38859;SDS011;24609;48.316;16.174;2022-08-03T07:05:02;4.85;;;4.32;;
38859;SDS011;24609;48.316;16.174;2022-08-03T07:07:28;6.38;;;5.88;;
38859;SDS011;24609;48.316;16.174;2022-08-03T07:09:54;7.03;;;5.43;;
38859;SDS011;24609;48.316;16.174;2022-08-03T07:12:20;7.70;;;6.25;;
38859;SDS011;24609;48.316;16.174;2022-08-03T07:14:45;6.22;;;5.55;;
38859;SDS011;24609;48.316;16.174;2022-08-03T07:17:11;6.45;;;5.38;;
38859;SDS011;24609;48.316;16.174;2022-08-03T07:19:37;5.50;;;5.00;;
38859;SDS011;24609;48.316;16.174;2022-08-03T07:22:02;5.13;;;4.15;;
38859;SDS011;24609;48.316;16.174;2022-08-03T07:24:28;5.00;;;4.07;;
38859;SDS011;24609;48.316;16.174;2022-08-03T07:26:54;5.45;;;4.95;;
38859;SDS011;24609;48.316;16.174;2022-08-03T07:29:20;5.30;;;4.90;;
38859;SDS011;24609;48.316;16.174;2022-08-03T07:31:45;5.22;;;4.82;;
38859;SDS011;24609;48.316;16.174;2022-08-03T07:34:11;5.60;;;5.10;;
38859;SDS011;24609;48.316;16.174;2022-08-03T07:36:37;5.35;;;4.85;;
38859;SDS011;24609;48.316;16.174;2022-08-03T07:39:03;5.40;;;4.90;;
38859;SDS011;24609;48.316;16.174;2022-08-03T07:41:28;5.18;;;4.68;;
38859;SDS011;24609;48.316;16.174;2022-08-03T07:43:55;4.93;;;4.53;;
38859;SDS011;24609;48.316;16.174;2022-08-03T07:46:21;4.93;;;4.57;;
38859;SDS011;24609;48.316;16.174;2022-08-03T07:48:47;4.57;;;4.10;;
38859;SDS011;24609;48.316;16.174;2022-08-03T07:51:13;4.63;;;3.95;;
38859;SDS011;24609;48.316;16.174;2022-08-03T07:53:39;4.60;;;4.20;;
38859;SDS011;24609;48.316;16.174;2022-08-03T07:56:04;5.53;;;4.95;;
38859;SDS011;24609;48.316;16.174;2022-08-03T07:58:30;4.68;;;4.20;;
38859;SDS011;24609;48.316;16.174;2022-08-03T08:00:56;5.00;;;4.60;;
38859;SDS011;24609;48.316;16.174;2022-08-03T08:03:21;4.95;;;4.45;;
38859;SDS011;24609;48.316;16.174;2022-08-03T08:05:47;4.80;;;4.40;;
38859;SDS011;24609;48.316;16.174;2022-08-03T08:08:13;4.10;;;3.80;;
38859;SDS011;24609;48.316;16.174;2022-08-03T08:10:39;5.25;;;4.75;;
38859;SDS011;24609;48.316;16.174;2022-08-03T08:13:05;4.50;;;4.10;;
38859;SDS011;24609;48.316;16.174;2022-08-03T08:15:31;4.50;;;4.10;;
38859;SDS011;24609;48.316;16.174;2022-08-03T08:17:58;3.90;;;3.60;;
38859;SDS011;24609;48.316;16.174;2022-08-03T08:20:26;6.47;;;4.43;;
38859;SDS011;24609;48.316;16.174;2022-08-03T08:22:54;4.25;;;3.85;;
38859;SDS011;24609;48.316;16.174;2022-08-03T08:25:22;4.20;;;3.90;;
38859;SDS011;24609;48.316;16.174;2022-08-03T08:27:48;3.38;;;3.08;;
38859;SDS011;24609;48.316;16.174;2022-08-03T08:30:15;4.88;;;3.80;;
38859;SDS011;24609;48.316;16.174;2022-08-03T08:32:45;3.55;;;3.25;;
38859;SDS011;24609;48.316;16.174;2022-08-03T08:35:12;5.03;;;4.63;;
38859;SDS011;24609;48.316;16.174;2022-08-03T08:37:38;4.65;;;4.35;;
38859;SDS011;24609;48.316;16.174;2022-08-03T08:40:05;3.63;;;3.33;;
38859;SDS011;24609;48.316;16.174;2022-08-03T08:42:32;3.70;;;3.40;;
38859;SDS011;24609;48.316;16.174;2022-08-03T08:44:59;3.80;;;3.50;;
38859;SDS011;24609;48.316;16.174;2022-08-03T08:47:28;3.70;;;3.40;;
38859;SDS011;24609;48.316;16.174;2022-08-03T08:49:55;4.10;;;3.67;;
38859;SDS011;24609;48.316;16.174;2022-08-03T08:52:23;3.53;;;3.23;;
38859;SDS011;24609;48.316;16.174;2022-08-03T08:57:27;3.50;;;3.20;;
38859;SDS011;24609;48.316;16.174;2022-08-03T08:59:55;3.72;;;3.42;;
38859;SDS011;24609;48.316;16.174;2022-08-03T09:02:22;3.92;;;3.55;;
38859;SDS011;24609;48.316;16.174;2022-08-03T09:04:48;3.83;;;3.20;;
38859;SDS011;24609;48.316;16.174;2022-08-03T09:07:15;6.18;;;3.72;;
38859;SDS011;24609;48.316;16.174;2022-08-03T09:09:41;3.80;;;3.50;;
38859;SDS011;24609;48.316;16.174;2022-08-03T09:12:08;3.78;;;3.45;;
38859;SDS011;24609;48.316;16.174;2022-08-03T09:14:34;4.07;;;3.50;;
38859;SDS011;24609;48.316;16.174;2022-08-03T09:17:00;3.45;;;3.25;;
38859;SDS011;24609;48.316;16.174;2022-08-03T09:19:27;4.32;;;4.00;;
38859;SDS011;24609;48.316;16.174;2022-08-03T09:24:59;3.20;;;2.83;;
38859;SDS011;24609;48.316;16.174;2022-08-03T09:27:28;5.70;;;3.28;;
38859;SDS011;24609;48.316;16.174;2022-08-03T09:30:16;2.95;;;2.20;;
38859;SDS011;24609;48.316;16.174;2022-08-03T09:32:43;3.10;;;2.70;;
38859;SDS011;24609;48.316;16.174;2022-08-03T09:35:10;3.00;;;2.50;;
38859;SDS011;24609;48.316;16.174;2022-08-03T09:37:37;2.40;;;2.20;;
38859;SDS011;24609;48.316;16.174;2022-08-03T09:40:03;2.45;;;2.25;;
38859;SDS011;24609;48.316;16.174;2022-08-03T09:42:29;3.35;;;2.60;;
38859;SDS011;24609;48.316;16.174;2022-08-03T09:44:55;2.60;;;2.28;;
38859;SDS011;24609;48.316;16.174;2022-08-03T09:47:29;2.72;;;2.25;;
38859;SDS011;24609;48.316;16.174;2022-08-03T09:49:57;2.60;;;2.28;;
38859;SDS011;24609;48.316;16.174;2022-08-03T09:52:36;3.75;;;2.15;;
38859;SDS011;24609;48.316;16.174;2022-08-03T09:55:10;2.53;;;2.30;;
38859;SDS011;24609;48.316;16.174;2022-08-03T09:57:37;2.30;;;2.10;;
38859;SDS011;24609;48.316;16.174;2022-08-03T10:00:08;8.73;;;2.20;;
38859;SDS011;24609;48.316;16.174;2022-08-03T10:02:37;2.30;;;2.10;;
38859;SDS011;24609;48.316;16.174;2022-08-03T10:05:04;3.38;;;2.05;;
38859;SDS011;24609;48.316;16.174;2022-08-03T10:07:40;2.60;;;2.40;;
38859;SDS011;24609;48.316;16.174;2022-08-03T10:10:09;2.70;;;1.95;;
38859;SDS011;24609;48.316;16.174;2022-08-03T10:12:37;1.83;;;1.65;;
38859;SDS011;24609;48.316;16.174;2022-08-03T10:15:04;2.13;;;1.65;;
38859;SDS011;24609;48.316;16.174;2022-08-03T10:17:30;1.95;;;1.80;;
38859;SDS011;24609;48.316;16.174;2022-08-03T10:19:56;4.18;;;1.75;;
38859;SDS011;24609;48.316;16.174;2022-08-03T10:22:27;2.03;;;1.60;;
38859;SDS011;24609;48.316;16.174;2022-08-03T10:24:55;3.13;;;1.65;;
38859;SDS011;24609;48.316;16.174;2022-08-03T10:27:26;1.70;;;1.60;;
38859;SDS011;24609;48.316;16.174;2022-08-03T10:29:56;1.55;;;1.45;;
38859;SDS011;24609;48.316;16.174;2022-08-03T10:32:29;1.90;;;1.77;;
38859;SDS011;24609;48.316;16.174;2022-08-03T10:35:07;3.33;;;2.03;;
38859;SDS011;24609;48.316;16.174;2022-08-03T10:37:41;1.92;;;1.80;;
38859;SDS011;24609;48.316;16.174;2022-08-03T10:40:28;1.73;;;1.63;;
38859;SDS011;24609;48.316;16.174;2022-08-03T10:42:58;2.28;;;1.77;;
38859;SDS011;24609;48.316;16.174;2022-08-03T10:45:35;1.75;;;1.60;;
38859;SDS011;24609;48.316;16.174;2022-08-03T10:48:06;3.15;;;1.75;;
38859;SDS011;24609;48.316;16.174;2022-08-03T10:50:33;3.88;;;1.92;;
38859;SDS011;24609;48.316;16.174;2022-08-03T10:53:00;2.10;;;1.75;;
38859;SDS011;24609;48.316;16.174;2022-08-03T11:01:07;3.50;;;2.33;;
38859;SDS011;24609;48.316;16.174;2022-08-03T11:06:22;1.67;;;1.50;;
38859;SDS011;24609;48.316;16.174;2022-08-03T11:11:33;1.48;;;1.38;;
38859;SDS011;24609;48.316;16.174;2022-08-03T11:14:07;1.80;;;1.70;;
38859;SDS011;24609;48.316;16.174;2022-08-03T11:16:45;2.38;;;1.90;;
38859;SDS011;24609;48.316;16.174;2022-08-03T11:19:14;3.15;;;1.83;;
38859;SDS011;24609;48.316;16.174;2022-08-03T11:35:08;2.40;;;1.50;;
38859;SDS011;24609;48.316;16.174;2022-08-03T11:48:25;1.83;;;1.65;;
38859;SDS011;24609;48.316;16.174;2022-08-03T11:50:52;1.60;;;1.50;;
38859;SDS011;24609;48.316;16.174;2022-08-03T11:53:18;1.90;;;1.45;;
38859;SDS011;24609;48.316;16.174;2022-08-03T11:55:45;9.15;;;1.67;;
38859;SDS011;24609;48.316;16.174;2022-08-03T11:58:18;2.50;;;1.80;;
38859;SDS011;24609;48.316;16.174;2022-08-03T12:00:45;3.95;;;1.80;;
38859;SDS011;24609;48.316;16.174;2022-08-03T12:03:12;2.05;;;1.85;;
38859;SDS011;24609;48.316;16.174;2022-08-03T12:05:48;2.28;;;1.90;;
38859;SDS011;24609;48.316;16.174;2022-08-03T12:08:16;1.65;;;1.50;;
38859;SDS011;24609;48.316;16.174;2022-08-03T12:10:53;3.80;;;1.55;;
38859;SDS011;24609;48.316;16.174;2022-08-03T12:13:20;3.35;;;1.85;;
38859;SDS011;24609;48.316;16.174;2022-08-03T12:15:51;2.53;;;1.73;;
38859;SDS011;24609;48.316;16.174;2022-08-03T12:18:19;1.67;;;1.58;;
38859;SDS011;24609;48.316;16.174;2022-08-03T12:20:46;1.83;;;1.73;;
38859;SDS011;24609;48.316;16.174;2022-08-03T12:23:16;2.15;;;1.70;;
38859;SDS011;24609;48.316;16.174;2022-08-03T12:25:44;2.27;;;1.60;;
38859;SDS011;24609;48.316;16.174;2022-08-03T12:28:14;2.15;;;1.67;;
38859;SDS011;24609;48.316;16.174;2022-08-03T12:30:47;1.70;;;1.60;;
38859;SDS011;24609;48.316;16.174;2022-08-03T12:33:16;2.63;;;1.60;;
38859;SDS011;24609;48.316;16.174;2022-08-03T12:35:47;1.80;;;1.70;;
38859;SDS011;24609;48.316;16.174;2022-08-03T12:38:18;1.70;;;1.60;;
38859;SDS011;24609;48.316;16.174;2022-08-03T12:40:54;1.50;;;1.40;;
38859;SDS011;24609;48.316;16.174;2022-08-03T12:45:49;2.05;;;1.55;;
38859;SDS011;24609;48.316;16.174;2022-08-03T12:48:15;2.40;;;1.60;;
38859;SDS011;24609;48.316;16.174;2022-08-03T12:50:40;1.73;;;1.63;;
38859;SDS011;24609;48.316;16.174;2022-08-03T12:53:07;4.07;;;1.70;;
38859;SDS011;24609;48.316;16.174;2022-08-03T12:55:34;2.03;;;1.83;;
38859;SDS011;24609;48.316;16.174;2022-08-03T12:58:04;1.95;;;1.40;;
38859;SDS011;24609;48.316;16.174;2022-08-03T13:00:31;1.83;;;1.67;;
38859;SDS011;24609;48.316;16.174;2022-08-03T13:03:01;1.42;;;1.30;;
38859;SDS011;24609;48.316;16.174;2022-08-03T13:05:31;1.90;;;1.80;;
38859;SDS011;24609;48.316;16.174;2022-08-03T13:08:16;1.75;;;1.52;;
38859;SDS011;24609;48.316;16.174;2022-08-03T13:10:48;1.65;;;1.55;;
38859;SDS011;24609;48.316;16.174;2022-08-03T13:13:14;1.80;;;1.52;;
38859;SDS011;24609;48.316;16.174;2022-08-03T13:15:40;2.55;;;1.50;;
38859;SDS011;24609;48.316;16.174;2022-08-03T13:18:06;3.67;;;1.80;;
38859;SDS011;24609;48.316;16.174;2022-08-03T13:20:33;2.97;;;1.85;;
38859;SDS011;24609;48.316;16.174;2022-08-03T13:22:59;1.58;;;1.40;;
38859;SDS011;24609;48.316;16.174;2022-08-03T13:25:24;1.60;;;1.50;;
38859;SDS011;24609;48.316;16.174;2022-08-03T13:27:50;1.63;;;1.48;;
38859;SDS011;24609;48.316;16.174;2022-08-03T13:30:16;1.67;;;1.58;;
38859;SDS011;24609;48.316;16.174;2022-08-03T13:32:42;1.65;;;1.55;;
38859;SDS011;24609;48.316;16.174;2022-08-03T13:35:09;2.05;;;1.60;;
38859;SDS011;24609;48.316;16.174;2022-08-03T13:37:35;2.00;;;1.50;;
38859;SDS011;24609;48.316;16.174;2022-08-03T13:40:02;1.45;;;1.35;;
38859;SDS011;24609;48.316;16.174;2022-08-03T13:42:31;1.90;;;1.70;;
38859;SDS011;24609;48.316;16.174;2022-08-03T13:44:58;2.83;;;1.60;;
38859;SDS011;24609;48.316;16.174;2022-08-03T13:47:25;2.20;;;1.48;;
38859;SDS011;24609;48.316;16.174;2022-08-03T13:49:51;2.10;;;1.55;;
38859;SDS011;24609;48.316;16.174;2022-08-03T13:52:18;1.50;;;1.40;;
38859;SDS011;24609;48.316;16.174;2022-08-03T13:54:43;2.17;;;1.60;;
38859;SDS011;24609;48.316;16.174;2022-08-03T13:57:09;1.50;;;1.40;;
38859;SDS011;24609;48.316;16.174;2022-08-03T13:59:36;1.67;;;1.50;;
38859;SDS011;24609;48.316;16.174;2022-08-03T14:02:02;1.98;;;1.42;;
38859;SDS011;24609;48.316;16.174;2022-08-03T14:04:28;1.67;;;1.40;;
38859;SDS011;24609;48.316;16.174;2022-08-03T14:06:54;1.60;;;1.50;;
38859;SDS011;24609;48.316;16.174;2022-08-03T14:09:20;1.83;;;1.50;;
38859;SDS011;24609;48.316;16.174;2022-08-03T14:11:46;3.35;;;1.30;;
38859;SDS011;24609;48.316;16.174;2022-08-03T14:14:12;2.35;;;1.35;;
38859;SDS011;24609;48.316;16.174;2022-08-03T14:16:38;1.50;;;1.23;;
38859;SDS011;24609;48.316;16.174;2022-08-03T14:19:03;1.70;;;1.60;;
38859;SDS011;24609;48.316;16.174;2022-08-03T14:21:30;1.58;;;1.48;;
38859;SDS011;24609;48.316;16.174;2022-08-03T14:23:57;1.33;;;1.23;;
38859;SDS011;24609;48.316;16.174;2022-08-03T14:26:22;2.03;;;1.58;;
38859;SDS011;24609;48.316;16.174;2022-08-03T14:28:48;1.52;;;1.42;;
38859;SDS011;24609;48.316;16.174;2022-08-03T14:31:14;5.53;;;1.70;;
38859;SDS011;24609;48.316;16.174;2022-08-03T14:33:41;1.60;;;1.50;;
38859;SDS011;24609;48.316;16.174;2022-08-03T14:36:06;1.52;;;1.42;;
38859;SDS011;24609;48.316;16.174;2022-08-03T14:38:32;1.80;;;1.60;;
38859;SDS011;24609;48.316;16.174;2022-08-03T14:40:58;2.00;;;1.80;;
38859;SDS011;24609;48.316;16.174;2022-08-03T14:43:24;2.35;;;1.40;;
38859;SDS011;24609;48.316;16.174;2022-08-03T14:45:50;1.67;;;1.48;;
38859;SDS011;24609;48.316;16.174;2022-08-03T14:48:18;1.55;;;1.40;;
38859;SDS011;24609;48.316;16.174;2022-08-03T14:50:44;2.92;;;1.60;;
38859;SDS011;24609;48.316;16.174;2022-08-03T14:53:10;1.60;;;1.50;;
38859;SDS011;24609;48.316;16.174;2022-08-03T14:55:36;1.80;;;1.52;;
38859;SDS011;24609;48.316;16.174;2022-08-03T14:58:02;2.05;;;1.58;;
38859;SDS011;24609;48.316;16.174;2022-08-03T15:00:33;2.28;;;1.50;;
38859;SDS011;24609;48.316;16.174;2022-08-03T15:03:00;1.70;;;1.45;;
38859;SDS011;24609;48.316;16.174;2022-08-03T15:05:26;2.10;;;1.80;;
38859;SDS011;24609;48.316;16.174;2022-08-03T15:07:52;2.05;;;1.50;;
38859;SDS011;24609;48.316;16.174;2022-08-03T15:10:18;3.10;;;1.70;;
38859;SDS011;24609;48.316;16.174;2022-08-03T15:12:44;2.75;;;1.48;;
38859;SDS011;24609;48.316;16.174;2022-08-03T15:15:10;2.33;;;1.55;;
38859;SDS011;24609;48.316;16.174;2022-08-03T15:17:35;1.50;;;1.40;;
38859;SDS011;24609;48.316;16.174;2022-08-03T15:20:02;2.17;;;1.50;;
38859;SDS011;24609;48.316;16.174;2022-08-03T15:22:28;1.33;;;1.23;;
38859;SDS011;24609;48.316;16.174;2022-08-03T15:24:54;2.63;;;1.95;;
38859;SDS011;24609;48.316;16.174;2022-08-03T15:27:20;1.48;;;1.20;;
38859;SDS011;24609;48.316;16.174;2022-08-03T15:29:46;1.60;;;1.40;;
38859;SDS011;24609;48.316;16.174;2022-08-03T15:32:12;1.95;;;1.60;;
38859;SDS011;24609;48.316;16.174;2022-08-03T15:34:38;1.45;;;1.35;;
38859;SDS011;24609;48.316;16.174;2022-08-03T15:37:05;2.58;;;1.60;;